createdAt,value
2023-01-19T00:01:25.916Z,0.57
2023-01-19T00:03:53.105Z,0.30
2023-01-19T00:06:47.690Z,0.55
2023-01-19T00:09:14.319Z,0.30
2023-01-19T00:11:40.979Z,0.60
2023-01-19T00:14:07.666Z,0.95
2023-01-19T00:16:34.465Z,0.60
2023-01-19T00:19:01.264Z,0.35
2023-01-19T00:21:28.077Z,1.13
2023-01-19T00:23:54.781Z,0.68
2023-01-19T00:26:22.580Z,0.90
2023-01-19T00:28:50.264Z,0.70
2023-01-19T00:31:17.199Z,0.65
2023-01-19T00:33:44.359Z,0.80
2023-01-19T00:36:11.427Z,1.70
2023-01-19T00:38:39.289Z,0.70
2023-01-19T00:41:06.290Z,1.52
2023-01-19T00:43:33.272Z,1.27
2023-01-19T00:46:01.168Z,0.73
2023-01-19T00:48:28.357Z,1.13
2023-01-19T00:50:55.359Z,1.15
2023-01-19T00:53:22.584Z,0.57
2023-01-19T00:55:50.512Z,0.40
2023-01-19T00:58:17.801Z,1.20
2023-01-19T01:00:45.276Z,0.75
2023-01-19T01:03:12.239Z,0.63
2023-01-19T01:05:41.545Z,1.10
2023-01-19T01:08:09.449Z,0.68
2023-01-19T01:10:36.348Z,0.82
2023-01-19T01:13:20.488Z,1.08
2023-01-19T01:15:53.526Z,2.28
2023-01-19T01:18:21.402Z,1.17
2023-01-19T01:20:48.566Z,0.85
2023-01-19T01:23:15.419Z,1.25
2023-01-19T01:25:42.646Z,0.80
2023-01-19T01:28:10.500Z,2.33
2023-01-19T01:30:41.188Z,1.45
2023-01-19T01:33:08.725Z,1.10
2023-01-19T01:35:35.540Z,0.73
2023-01-19T01:38:02.611Z,0.40
2023-01-19T01:40:29.862Z,0.60
2023-01-19T01:42:56.762Z,0.55
2023-01-19T01:45:35.708Z,0.90
2023-01-19T01:48:17.693Z,0.50
2023-01-19T01:51:24.130Z,0.68
2023-01-19T01:53:56.616Z,1.13
2023-01-19T01:56:27.600Z,0.88
2023-01-19T01:58:54.471Z,0.88
2023-01-19T02:01:40.048Z,1.05
2023-01-19T02:04:07.254Z,0.60
2023-01-19T02:06:34.691Z,1.20
2023-01-19T02:09:29.350Z,1.42
2023-01-19T02:12:15.545Z,1.42
2023-01-19T02:14:42.541Z,1.30
2023-01-19T02:17:09.558Z,1.90
2023-01-19T02:19:43.737Z,1.98
2023-01-19T02:22:40.689Z,1.58
2023-01-19T02:25:07.787Z,1.98
2023-01-19T02:27:37.947Z,2.22
2023-01-19T02:30:05.508Z,1.52
2023-01-19T02:32:32.664Z,1.67
2023-01-19T02:35:06.967Z,1.60
2023-01-19T02:37:40.147Z,1.58
2023-01-19T02:40:12.675Z,2.20
2023-01-19T02:42:56.935Z,2.00
2023-01-19T02:45:24.325Z,1.80
2023-01-19T02:47:53.081Z,1.40
2023-01-19T02:50:37.444Z,2.47
2023-01-19T02:53:13.175Z,1.77
2023-01-19T02:55:45.388Z,2.08
2023-01-19T02:58:20.582Z,1.52
2023-01-19T03:01:12.580Z,2.53
2023-01-19T03:03:50.438Z,1.50
2023-01-19T03:06:44.928Z,1.42
2023-01-19T03:09:23.915Z,1.95
2023-01-19T03:12:03.561Z,1.27
2023-01-19T03:14:34.228Z,1.13
2023-01-19T03:17:05.923Z,1.42
2023-01-19T03:19:42.129Z,1.38
2023-01-19T03:22:23.654Z,1.48
2023-01-19T03:24:53.729Z,2.40
2023-01-19T03:27:31.329Z,2.63
2023-01-19T03:30:08.122Z,1.20
2023-01-19T03:32:41.180Z,2.33
2023-01-19T03:35:15.746Z,1.95
2023-01-19T03:37:45.258Z,1.60
2023-01-19T03:40:12.624Z,1.48
2023-01-19T03:42:41.234Z,2.13
2023-01-19T03:45:09.298Z,1.83
2023-01-19T03:47:36.517Z,1.00
2023-01-19T03:50:14.938Z,1.65
2023-01-19T03:52:41.966Z,1.27
2023-01-19T03:55:10.072Z,1.30
2023-01-19T03:57:37.523Z,1.77
2023-01-19T04:00:05.121Z,1.63
2023-01-19T04:02:39.142Z,1.42
2023-01-19T04:05:06.317Z,1.45
2023-01-19T04:07:33.125Z,1.50
2023-01-19T04:10:00.235Z,1.00
2023-01-19T04:12:26.915Z,1.48
2023-01-19T04:14:53.773Z,1.50
2023-01-19T04:17:20.705Z,1.42
2023-01-19T04:19:47.524Z,1.48
2023-01-19T04:22:14.898Z,1.90
2023-01-19T04:24:41.553Z,2.20
2023-01-19T04:27:08.281Z,2.60
2023-01-19T04:29:35.105Z,1.40
2023-01-19T04:32:01.777Z,1.55
2023-01-19T04:34:29.847Z,2.63
2023-01-19T04:36:56.569Z,1.25
2023-01-19T04:39:23.428Z,1.42
2023-01-19T04:41:51.791Z,1.40
2023-01-19T04:44:18.425Z,1.00
2023-01-19T04:46:45.436Z,1.45
2023-01-19T04:49:12.144Z,1.35
2023-01-19T04:51:38.934Z,1.48
2023-01-19T04:54:05.665Z,1.63
2023-01-19T04:56:32.295Z,1.92
2023-01-19T04:59:01.209Z,2.60
2023-01-19T05:01:28.189Z,1.80
2023-01-19T05:03:55.040Z,1.20
2023-01-19T05:06:21.646Z,1.38
2023-01-19T05:08:48.271Z,1.98
2023-01-19T05:11:21.015Z,1.88
2023-01-19T05:13:48.191Z,1.50
2023-01-19T05:16:16.634Z,1.20
2023-01-19T05:18:43.363Z,1.13
2023-01-19T05:21:10.061Z,2.03
2023-01-19T05:23:37.135Z,1.23
2023-01-19T05:26:04.084Z,1.25
2023-01-19T05:28:32.462Z,1.52
2023-01-19T05:31:00.371Z,1.30
2023-01-19T05:33:27.829Z,1.35
2023-01-19T05:35:55.804Z,2.45
2023-01-19T05:38:34.377Z,1.50
2023-01-19T05:41:02.836Z,2.47
2023-01-19T05:43:29.740Z,1.20
2023-01-19T05:45:57.003Z,1.40
2023-01-19T05:48:23.819Z,1.80
2023-01-19T05:50:51.856Z,0.95
2023-01-19T05:53:18.641Z,1.42
2023-01-19T05:55:45.291Z,1.45
2023-01-19T05:58:12.001Z,1.48
2023-01-19T06:00:38.879Z,0.85
2023-01-19T06:03:06.676Z,2.03
2023-01-19T06:05:35.590Z,1.30
2023-01-19T06:08:02.193Z,0.98
2023-01-19T06:10:34.917Z,1.27
2023-01-19T06:13:02.161Z,0.75
2023-01-19T06:15:31.241Z,1.25
2023-01-19T06:17:57.909Z,1.90
2023-01-19T06:20:24.562Z,1.15
2023-01-19T06:22:51.313Z,1.33
2023-01-19T06:25:18.165Z,1.20
2023-01-19T06:27:45.820Z,0.93
2023-01-19T06:30:13.740Z,1.63
2023-01-19T06:32:40.586Z,1.42
2023-01-19T06:35:07.984Z,2.08
2023-01-19T06:37:36.565Z,1.50
2023-01-19T06:40:03.555Z,1.60
2023-01-19T06:42:30.192Z,0.80
2023-01-19T06:44:57.345Z,0.93
2023-01-19T06:47:24.133Z,1.55
2023-01-19T06:49:51.913Z,0.90
2023-01-19T06:52:20.362Z,1.00
2023-01-19T06:54:47.451Z,1.42
2023-01-19T06:57:14.626Z,0.77
2023-01-19T06:59:42.089Z,1.13
2023-01-19T07:02:27.728Z,1.15
2023-01-19T07:04:56.376Z,1.25
2023-01-19T07:07:23.300Z,0.88
2023-01-19T07:09:53.806Z,0.80
2023-01-19T07:12:21.680Z,0.82
2023-01-19T07:14:49.731Z,0.70
2023-01-19T07:17:19.571Z,0.82
2023-01-19T07:19:46.713Z,0.73
2023-01-19T07:22:16.503Z,1.10
2023-01-19T07:24:43.397Z,1.17
2023-01-19T07:27:11.668Z,0.90
2023-01-19T07:29:39.407Z,1.40
2023-01-19T07:32:06.316Z,0.68
2023-01-19T07:34:33.318Z,1.30
2023-01-19T07:37:00.412Z,0.70
2023-01-19T07:39:34.226Z,1.20
2023-01-19T07:42:01.158Z,0.82
2023-01-19T07:44:28.897Z,1.05
2023-01-19T07:46:55.708Z,0.55
2023-01-19T07:49:22.460Z,0.70
2023-01-19T07:51:49.384Z,0.80
2023-01-19T07:54:16.091Z,0.80
2023-01-19T07:56:43.145Z,2.13
2023-01-19T07:59:10.319Z,1.55
2023-01-19T08:01:37.965Z,1.00
2023-01-19T08:04:05.117Z,1.55
2023-01-19T08:06:37.449Z,1.10
2023-01-19T08:09:07.183Z,1.52
2023-01-19T08:11:34.239Z,0.90
2023-01-19T08:14:01.186Z,0.95
2023-01-19T08:16:31.134Z,0.65
2023-01-19T08:18:57.899Z,1.00
2023-01-19T08:21:24.627Z,1.00
2023-01-19T08:23:55.611Z,0.50
2023-01-19T08:26:49.748Z,0.95
2023-01-19T08:29:17.422Z,0.88
2023-01-19T08:31:45.177Z,1.23
2023-01-19T08:34:12.188Z,0.63
2023-01-19T08:36:39.155Z,1.17
2023-01-19T08:39:06.165Z,0.98
2023-01-19T08:41:33.481Z,1.17
2023-01-19T08:44:01.492Z,1.15
2023-01-19T08:46:28.306Z,1.45
2023-01-19T08:48:55.079Z,1.33
2023-01-19T08:51:22.715Z,0.95
2023-01-19T08:53:49.759Z,1.15
2023-01-19T08:56:18.005Z,1.42
2023-01-19T08:58:49.387Z,1.35
2023-01-19T09:01:23.909Z,0.95
2023-01-19T09:03:53.473Z,1.20
2023-01-19T09:06:20.211Z,0.90
2023-01-19T09:08:47.647Z,0.70
2023-01-19T09:11:15.909Z,1.02
2023-01-19T09:13:43.861Z,0.88
2023-01-19T09:16:13.463Z,2.05
2023-01-19T09:18:40.223Z,0.80
2023-01-19T09:21:09.964Z,0.80
2023-01-19T09:23:37.034Z,0.68
2023-01-19T09:26:05.396Z,0.30
2023-01-19T09:28:32.878Z,0.85
2023-01-19T09:30:59.761Z,0.57
2023-01-19T09:33:26.666Z,0.70
2023-01-19T09:35:53.352Z,0.98
2023-01-19T09:38:20.636Z,0.95
2023-01-19T09:40:51.828Z,0.80
2023-01-19T09:43:39.910Z,1.15
2023-01-19T09:46:19.981Z,0.90
2023-01-19T09:49:04.919Z,0.73
2023-01-19T09:51:36.764Z,0.70
2023-01-19T09:54:59.193Z,0.60
2023-01-19T09:57:28.136Z,1.90
2023-01-19T09:59:59.654Z,1.02
2023-01-19T10:02:53.348Z,1.02
2023-01-19T10:05:37.527Z,0.73
2023-01-19T10:08:33.515Z,0.70
2023-01-19T10:11:00.577Z,0.90
2023-01-19T10:13:47.026Z,0.63
2023-01-19T10:16:31.685Z,0.82
2023-01-19T10:19:09.205Z,0.55
2023-01-19T10:21:45.148Z,0.60
2023-01-19T10:24:21.271Z,0.80
2023-01-19T10:26:53.303Z,0.55
2023-01-19T10:29:34.603Z,0.80
2023-01-19T10:32:09.557Z,0.40
2023-01-19T10:34:37.140Z,0.50
2023-01-19T10:37:18.186Z,0.82
2023-01-19T10:39:54.022Z,0.77
2023-01-19T10:42:20.994Z,0.75
2023-01-19T10:44:49.214Z,0.50
2023-01-19T10:47:24.388Z,0.70
2023-01-19T10:49:52.275Z,0.82
2023-01-19T10:52:19.206Z,0.95
2023-01-19T10:54:48.514Z,0.82
2023-01-19T10:57:29.622Z,0.70
2023-01-19T10:59:56.910Z,0.52
2023-01-19T11:02:32.190Z,0.77
2023-01-19T11:05:01.261Z,0.90
2023-01-19T11:07:32.970Z,0.43
2023-01-19T11:12:52.377Z,0.68
2023-01-19T11:15:32.109Z,0.80
2023-01-19T11:17:59.481Z,0.57
2023-01-19T11:20:30.641Z,0.63
2023-01-19T11:23:18.985Z,1.00
2023-01-19T11:25:48.606Z,0.60
2023-01-19T11:28:35.600Z,0.50
2023-01-19T11:31:24.590Z,0.50
2023-01-19T11:33:53.241Z,0.35
2023-01-19T11:36:22.697Z,0.65
2023-01-19T11:38:53.497Z,0.60
2023-01-19T11:41:28.369Z,0.60
2023-01-19T11:43:58.431Z,0.85
2023-01-19T11:46:31.494Z,0.60
2023-01-19T11:49:15.262Z,0.60
2023-01-19T11:54:35.098Z,0.75
2023-01-19T11:57:12.925Z,0.60
2023-01-19T12:02:24.442Z,0.82
2023-01-19T12:04:55.989Z,1.05
2023-01-19T12:07:33.969Z,0.50
2023-01-19T12:10:26.521Z,0.32
2023-01-19T12:12:53.826Z,0.57
2023-01-19T12:15:39.269Z,0.88
2023-01-19T12:18:12.977Z,0.70
2023-01-19T12:20:49.404Z,0.75
2023-01-19T12:23:44.807Z,0.70
2023-01-19T12:26:35.641Z,0.60
2023-01-19T12:29:15.413Z,0.65
2023-01-19T12:31:45.013Z,0.50
2023-01-19T12:34:25.485Z,0.50
2023-01-19T12:36:55.424Z,0.50
2023-01-19T12:39:23.678Z,0.50
2023-01-19T12:42:18.538Z,1.02
2023-01-19T12:44:47.628Z,0.57
2023-01-19T12:47:14.251Z,0.50
2023-01-19T12:49:47.138Z,0.40
2023-01-19T12:52:19.644Z,0.35
2023-01-19T12:55:13.543Z,0.63
2023-01-19T12:58:00.272Z,0.40
2023-01-19T13:00:32.352Z,0.55
2023-01-19T13:02:59.918Z,0.60
2023-01-19T13:05:41.665Z,1.23
2023-01-19T13:08:13.893Z,0.30
2023-01-19T13:14:39.180Z,0.93
2023-01-19T13:17:23.197Z,1.55
2023-01-19T13:19:54.949Z,0.68
2023-01-19T13:22:47.760Z,0.73
2023-01-19T13:25:26.816Z,0.80
2023-01-19T13:27:54.450Z,0.88
2023-01-19T13:30:27.336Z,0.93
2023-01-19T13:32:57.369Z,0.60
2023-01-19T13:35:24.822Z,0.60
2023-01-19T13:37:52.485Z,0.55
2023-01-19T13:40:36.222Z,0.70
2023-01-19T13:43:03.678Z,0.88
2023-01-19T13:45:38.165Z,0.65
2023-01-19T13:48:07.893Z,0.82
2023-01-19T13:50:38.751Z,0.40
2023-01-19T13:53:19.274Z,0.43
2023-01-19T13:56:17.345Z,0.60
2023-01-19T13:59:04.567Z,0.77
2023-01-19T14:01:32.986Z,0.50
2023-01-19T14:04:00.303Z,0.73
2023-01-19T14:06:48.932Z,0.70
2023-01-19T14:09:19.436Z,0.77
2023-01-19T14:12:06.227Z,0.50
2023-01-19T14:14:33.660Z,0.70
2023-01-19T14:17:04.898Z,1.00
2023-01-19T14:19:50.343Z,1.10
2023-01-19T14:22:17.197Z,0.57
2023-01-19T14:24:44.003Z,1.25
2023-01-19T14:27:24.770Z,0.90
2023-01-19T14:29:53.889Z,0.73
2023-01-19T14:32:20.623Z,0.65
2023-01-19T14:34:47.300Z,0.73
2023-01-19T14:37:23.064Z,0.80
2023-01-19T14:40:00.402Z,0.55
2023-01-19T14:42:33.422Z,0.75
2023-01-19T14:45:02.750Z,0.65
2023-01-19T14:47:40.026Z,0.60
2023-01-19T14:50:09.517Z,1.02
2023-01-19T14:52:42.353Z,0.75
2023-01-19T14:55:21.443Z,0.90
2023-01-19T14:57:48.548Z,0.77
2023-01-19T15:00:20.386Z,1.05
2023-01-19T15:02:49.286Z,0.73
2023-01-19T15:05:16.540Z,0.60
2023-01-19T15:07:45.530Z,1.25
2023-01-19T15:10:21.040Z,0.65
2023-01-19T15:12:50.080Z,0.93
2023-01-19T15:15:22.835Z,0.63
2023-01-19T15:17:50.449Z,0.60
2023-01-19T15:20:20.385Z,0.77
2023-01-19T15:22:47.690Z,0.75
2023-01-19T15:25:21.119Z,0.85
2023-01-19T15:27:49.224Z,0.60
2023-01-19T15:30:25.012Z,0.60
2023-01-19T15:32:51.840Z,0.60
2023-01-19T15:35:24.245Z,0.60
2023-01-19T15:37:51.196Z,0.50
2023-01-19T15:40:19.967Z,0.90
2023-01-19T15:42:47.035Z,0.60
2023-01-19T15:45:36.763Z,0.77
2023-01-19T15:48:08.589Z,0.65
2023-01-19T15:50:45.236Z,0.65
2023-01-19T15:53:17.367Z,0.60
2023-01-19T15:55:45.272Z,0.60
2023-01-19T15:58:14.146Z,0.82
2023-01-19T16:00:41.575Z,0.57
2023-01-19T16:03:10.886Z,0.60
2023-01-19T16:05:43.613Z,0.52
2023-01-19T16:08:12.107Z,0.75
2023-01-19T16:10:40.083Z,0.47
2023-01-19T16:13:09.636Z,1.13
2023-01-19T16:15:37.327Z,0.65
2023-01-19T16:18:05.429Z,0.40
2023-01-19T16:20:32.527Z,0.30
2023-01-19T16:23:13.545Z,0.50
2023-01-19T16:25:40.826Z,0.68
2023-01-19T16:28:08.340Z,0.70
2023-01-19T16:30:35.342Z,0.60
2023-01-19T16:33:02.212Z,0.52
2023-01-19T16:35:28.876Z,0.88
2023-01-19T16:37:55.703Z,1.00
2023-01-19T16:40:22.665Z,0.50
2023-01-19T16:42:51.242Z,0.82
2023-01-19T16:45:17.994Z,1.08
2023-01-19T16:47:46.924Z,0.95
2023-01-19T16:50:20.696Z,1.50
2023-01-19T16:52:47.400Z,3.33
2023-01-19T16:55:14.158Z,2.53
2023-01-19T16:57:40.839Z,4.70
2023-01-19T17:00:12.501Z,4.60
2023-01-19T17:02:39.473Z,2.30
2023-01-19T17:05:06.759Z,1.60
2023-01-19T17:07:33.744Z,0.55
2023-01-19T17:10:00.784Z,0.40
2023-01-19T17:12:27.691Z,0.40
2023-01-19T17:14:54.293Z,0.40
2023-01-19T17:17:21.552Z,0.70
2023-01-19T17:19:48.202Z,0.65
2023-01-19T17:22:15.186Z,0.45
2023-01-19T17:24:43.369Z,0.40
2023-01-19T17:27:11.002Z,0.30
2023-01-19T17:29:37.601Z,0.50
2023-01-19T17:32:04.854Z,0.85
2023-01-19T17:34:31.652Z,0.70
2023-01-19T17:37:03.167Z,0.68
2023-01-19T17:39:30.839Z,0.63
2023-01-19T17:41:57.705Z,0.55
2023-01-19T17:44:24.496Z,0.38
2023-01-19T17:46:51.193Z,0.20
2023-01-19T17:49:18.056Z,2.88
2023-01-19T17:51:45.050Z,0.75
2023-01-19T17:54:12.664Z,0.57
2023-01-19T17:56:41.421Z,0.40
2023-01-19T17:59:08.468Z,0.55
2023-01-19T18:01:40.693Z,0.40
2023-01-19T18:04:08.626Z,0.30
2023-01-19T18:06:36.069Z,0.32
2023-01-19T18:09:04.902Z,0.57
2023-01-19T18:11:31.903Z,0.20
2023-01-19T18:14:00.319Z,0.60
2023-01-19T18:16:28.759Z,0.15
2023-01-19T18:18:56.815Z,0.40
2023-01-19T18:21:25.148Z,0.20
2023-01-19T18:23:51.885Z,0.00
2023-01-19T18:26:21.783Z,0.32
2023-01-19T18:28:49.256Z,0.10
2023-01-19T18:31:18.607Z,0.10
2023-01-19T18:33:45.622Z,0.10
2023-01-19T18:36:12.645Z,0.20
2023-01-19T18:38:40.145Z,0.00
2023-01-19T18:41:15.846Z,0.20
2023-01-19T18:43:42.991Z,0.32
2023-01-19T18:46:10.087Z,0.60
2023-01-19T18:48:38.162Z,0.75
2023-01-19T18:51:07.227Z,0.47
2023-01-19T18:53:34.364Z,0.93
2023-01-19T18:56:02.216Z,0.55
2023-01-19T18:58:31.560Z,0.57
2023-01-19T19:01:00.426Z,0.30
2023-01-19T19:03:28.160Z,0.10
2023-01-19T19:05:55.306Z,0.30
2023-01-19T19:08:22.281Z,0.20
2023-01-19T19:10:49.157Z,0.28
2023-01-19T19:13:17.690Z,0.20
2023-01-19T19:15:44.876Z,0.10
2023-01-19T19:18:14.209Z,0.40
2023-01-19T19:20:43.351Z,0.08
2023-01-19T19:23:11.706Z,0.35
2023-01-19T19:25:38.980Z,2.60
2023-01-19T19:28:06.220Z,2.38
2023-01-19T19:30:34.990Z,2.25
2023-01-19T19:33:01.904Z,2.03
2023-01-19T19:35:28.757Z,2.40
2023-01-19T19:37:57.897Z,1.85
2023-01-19T19:40:26.289Z,2.50
2023-01-19T19:42:58.352Z,1.65
2023-01-19T19:45:25.801Z,2.00
2023-01-19T19:47:52.735Z,1.67
2023-01-19T19:50:19.820Z,3.92
2023-01-19T19:52:46.733Z,3.20
2023-01-19T19:55:13.927Z,4.35
2023-01-19T19:57:44.133Z,2.92
2023-01-19T20:00:14.157Z,4.00
2023-01-19T20:02:41.177Z,4.18
2023-01-19T20:05:08.323Z,3.80
2023-01-19T20:07:35.503Z,3.38
2023-01-19T20:10:02.251Z,4.50
2023-01-19T20:12:29.028Z,7.93
2023-01-19T20:14:58.450Z,5.57
2023-01-19T20:17:25.108Z,5.00
2023-01-19T20:19:52.202Z,4.43
2023-01-19T20:22:19.254Z,5.68
2023-01-19T20:24:46.114Z,5.03
2023-01-19T20:27:13.322Z,3.53
2023-01-19T20:29:40.174Z,5.15
2023-01-19T20:32:07.188Z,9.15
2023-01-19T20:34:35.840Z,8.88
2023-01-19T20:37:04.702Z,12.93
2023-01-19T20:39:33.605Z,6.07
2023-01-19T20:42:01.270Z,4.95
2023-01-19T20:44:29.270Z,4.57
2023-01-19T20:46:56.658Z,2.65
2023-01-19T20:49:24.252Z,1.58
2023-01-19T20:51:52.231Z,1.08
2023-01-19T20:54:22.810Z,0.47
2023-01-19T20:56:49.676Z,0.75
2023-01-19T20:59:16.660Z,0.40
2023-01-19T21:01:44.274Z,0.65
2023-01-19T21:04:11.941Z,0.20
2023-01-19T21:06:39.616Z,0.50
2023-01-19T21:09:07.261Z,0.30
2023-01-19T21:11:35.023Z,0.25
2023-01-19T21:14:02.156Z,0.20
2023-01-19T21:16:31.790Z,0.20
2023-01-19T21:18:59.110Z,0.30
2023-01-19T21:21:31.459Z,0.57
2023-01-19T21:24:00.653Z,0.95
2023-01-19T21:26:30.283Z,0.20
2023-01-19T21:29:01.155Z,0.30
2023-01-19T21:31:28.977Z,0.10
2023-01-19T21:33:59.068Z,0.40
2023-01-19T21:36:26.376Z,1.40
2023-01-19T21:38:55.709Z,1.85
2023-01-19T21:41:22.717Z,1.90
2023-01-19T21:43:49.691Z,2.90
2023-01-19T21:46:20.596Z,2.85
2023-01-19T21:48:48.651Z,2.33
2023-01-19T21:51:16.501Z,2.42
2023-01-19T21:53:43.682Z,2.85
2023-01-19T21:56:11.121Z,1.58
2023-01-19T21:58:37.897Z,2.50
2023-01-19T22:01:13.867Z,2.47
2023-01-19T22:03:42.342Z,3.42
2023-01-19T22:06:11.950Z,3.63
2023-01-19T22:08:40.417Z,4.43
2023-01-19T22:11:10.026Z,4.30
2023-01-19T22:13:40.864Z,3.83
2023-01-19T22:16:12.059Z,3.80
2023-01-19T22:18:40.724Z,3.97
2023-01-19T22:21:13.243Z,3.50
2023-01-19T22:23:40.808Z,3.90
2023-01-19T22:26:08.859Z,4.35
2023-01-19T22:28:36.327Z,3.90
2023-01-19T22:31:05.663Z,3.80
2023-01-19T22:33:32.658Z,3.63
2023-01-19T22:36:11.406Z,4.20
2023-01-19T22:38:39.992Z,4.15
2023-01-19T22:41:28.478Z,4.25
2023-01-19T22:43:57.538Z,3.78
2023-01-19T22:46:26.730Z,5.88
2023-01-19T22:48:54.214Z,2.95
2023-01-19T22:51:21.966Z,4.70
2023-01-19T22:53:48.672Z,2.70
2023-01-19T22:56:26.815Z,1.90
2023-01-19T23:01:23.401Z,1.52
2023-01-19T23:03:50.355Z,0.85
2023-01-19T23:06:19.379Z,0.88
2023-01-19T23:08:46.797Z,0.90
2023-01-19T23:11:17.786Z,0.98
2023-01-19T23:13:45.165Z,0.95
2023-01-19T23:16:12.746Z,1.23
2023-01-19T23:18:39.963Z,1.25
2023-01-19T23:21:12.624Z,1.20
2023-01-19T23:23:39.933Z,1.55
2023-01-19T23:26:09.721Z,1.35
2023-01-19T23:28:37.108Z,1.20
2023-01-19T23:31:17.833Z,0.98
2023-01-19T23:33:44.786Z,1.40
2023-01-19T23:36:12.680Z,1.98
2023-01-19T23:38:39.901Z,1.23
2023-01-19T23:41:07.175Z,1.48
2023-01-19T23:43:34.304Z,1.65
2023-01-19T23:46:09.018Z,1.20
2023-01-19T23:48:36.363Z,0.77
2023-01-19T23:51:14.399Z,1.55
2023-01-19T23:53:41.671Z,1.98
2023-01-19T23:56:18.002Z,3.30
2023-01-19T23:58:52.430Z,3.67
